Pagrindinis puslapis
METAR-TAF:

METAR-TAF

Oro uostai :

Bernas, Šveicarija

platuma: 46-55N, ilguma: 007-30E, Aukštis: 505 m

Dabartinis oras

Ataskaita buvo paskelbta 38 minutes, ne 20:50 UTC
Vėjas 1 kt nuo kintamojo kryptimis
Temperatūra 7°C
Drėgmė 76%
Slėgis 1023 hPa
Matomumas 10 km arba daugiau
nėra debesų žemiau 1500 m ir nėra kamuolinių lietaus debesų

METAR: LSZB 092050Z AUTO VRB01KT CAVOK 07/03 Q1023

Laikas: 23:28 (21:28 UTC)

Prognozė

Ataskaita buvo paskelbta 7 valandos ir 3 minutes, ne 14:25 UTC
Prognozė galioja nuo 09 metu 15 UTC su 09 metu 24 UTC
Vėjas 3 kt nuo kintamojo kryptimis
Matomumas 10 km arba daugiau
Mažai debesys ne aukštis 8000 ft
Tapsmas
nuo 09 metu 16 UTC su 09 metu 19 UTC
Matomumas 10 km arba daugiau
nėra debesų žemiau 1500 m ir nėra kamuolinių lietaus debesų

TAF: LSZB 091425Z 0915/0924 VRB03KT 9999 FEW080 BECMG 0916/0919 CAVOK

Orai ataskaitas ir orų prognozės (METAR, TAF).

turimą stotys yra geltonos ir raudonos taškus žemėlapyje.

Perkelti pele per norėdami pamatyti stoties vardą.

Tada spustelėkite, norėdami matyti oro stebėjimo ir prognozės.

Norėdami pakeisti žemėlapį: spustelėkite ant žalios mygtukų su juodo kryžiaus žemyn,; žalią mygtuką su brūkšneliu, jei norite nutolinti; arba žalių rodyklių gretimoms žemėlapius.


METAR-TAF: